sensor_id;sensor_type;location;lat;lon;timestamp;temperature;humidity
70550;DHT22;58101;48.658;2.328;2023-04-24T00:00:16;8.60;99.90
70550;DHT22;58101;48.658;2.328;2023-04-24T00:02:43;8.60;99.90
70550;DHT22;58101;48.658;2.328;2023-04-24T00:05:16;8.60;99.90
70550;DHT22;58101;48.658;2.328;2023-04-24T00:07:43;8.60;99.90
70550;DHT22;58101;48.658;2.328;2023-04-24T00:10:15;8.50;99.90
70550;DHT22;58101;48.658;2.328;2023-04-24T00:12:41;8.40;99.90
70550;DHT22;58101;48.658;2.328;2023-04-24T00:15:10;8.50;99.90
70550;DHT22;58101;48.658;2.328;2023-04-24T00:17:36;8.50;99.90
70550;DHT22;58101;48.658;2.328;2023-04-24T00:20:03;8.50;99.90
70550;DHT22;58101;48.658;2.328;2023-04-24T00:22:30;8.50;99.90
70550;DHT22;58101;48.658;2.328;2023-04-24T00:24:56;8.50;99.90
70550;DHT22;58101;48.658;2.328;2023-04-24T00:27:22;8.50;99.90
70550;DHT22;58101;48.658;2.328;2023-04-24T00:29:48;8.40;99.90
70550;DHT22;58101;48.658;2.328;2023-04-24T00:32:14;8.40;99.90
70550;DHT22;58101;48.658;2.328;2023-04-24T00:34:40;8.40;99.90
70550;DHT22;58101;48.658;2.328;2023-04-24T00:37:06;8.40;99.90
70550;DHT22;58101;48.658;2.328;2023-04-24T00:39:32;8.30;99.90
70550;DHT22;58101;48.658;2.328;2023-04-24T00:41:57;8.30;99.90
70550;DHT22;58101;48.658;2.328;2023-04-24T00:44:23;8.30;99.90
70550;DHT22;58101;48.658;2.328;2023-04-24T00:46:49;8.20;99.90
70550;DHT22;58101;48.658;2.328;2023-04-24T00:49:20;8.20;99.90
70550;DHT22;58101;48.658;2.328;2023-04-24T00:51:46;8.20;99.90
70550;DHT22;58101;48.658;2.328;2023-04-24T00:54:16;8.20;99.90
70550;DHT22;58101;48.658;2.328;2023-04-24T00:56:42;8.20;99.90
70550;DHT22;58101;48.658;2.328;2023-04-24T00:59:08;8.10;99.90
70550;DHT22;58101;48.658;2.328;2023-04-24T01:01:34;8.10;99.90
70550;DHT22;58101;48.658;2.328;2023-04-24T01:04:00;8.10;99.90
70550;DHT22;58101;48.658;2.328;2023-04-24T01:06:29;8.10;99.90
70550;DHT22;58101;48.658;2.328;2023-04-24T01:08:59;8.10;99.90
70550;DHT22;58101;48.658;2.328;2023-04-24T01:11:26;8.10;99.90
70550;DHT22;58101;48.658;2.328;2023-04-24T01:13:52;8.00;99.90
70550;DHT22;58101;48.658;2.328;2023-04-24T01:16:18;8.00;99.90
70550;DHT22;58101;48.658;2.328;2023-04-24T01:18:46;8.00;99.90
70550;DHT22;58101;48.658;2.328;2023-04-24T01:21:14;8.10;99.90
70550;DHT22;58101;48.658;2.328;2023-04-24T01:23:44;8.00;99.90
70550;DHT22;58101;48.658;2.328;2023-04-24T01:26:11;8.00;99.90
70550;DHT22;58101;48.658;2.328;2023-04-24T01:28:37;8.10;99.90
70550;DHT22;58101;48.658;2.328;2023-04-24T01:31:03;8.00;99.90
70550;DHT22;58101;48.658;2.328;2023-04-24T01:33:28;8.00;99.90
70550;DHT22;58101;48.658;2.328;2023-04-24T01:35:54;7.90;99.90
70550;DHT22;58101;48.658;2.328;2023-04-24T01:38:20;7.90;99.90
70550;DHT22;58101;48.658;2.328;2023-04-24T01:40:46;7.90;99.90
70550;DHT22;58101;48.658;2.328;2023-04-24T01:43:12;7.90;99.90
70550;DHT22;58101;48.658;2.328;2023-04-24T01:45:38;7.90;99.90
70550;DHT22;58101;48.658;2.328;2023-04-24T01:48:04;7.80;99.90
70550;DHT22;58101;48.658;2.328;2023-04-24T01:50:30;7.80;99.90
70550;DHT22;58101;48.658;2.328;2023-04-24T01:52:56;7.80;99.90
70550;DHT22;58101;48.658;2.328;2023-04-24T01:55:22;7.80;99.90
70550;DHT22;58101;48.658;2.328;2023-04-24T01:57:48;7.80;99.90
70550;DHT22;58101;48.658;2.328;2023-04-24T02:00:15;7.80;99.90
70550;DHT22;58101;48.658;2.328;2023-04-24T02:02:41;7.90;99.90
70550;DHT22;58101;48.658;2.328;2023-04-24T02:05:07;7.90;99.90
70550;DHT22;58101;48.658;2.328;2023-04-24T02:07:33;7.90;99.90
70550;DHT22;58101;48.658;2.328;2023-04-24T02:09:59;7.80;99.90
70550;DHT22;58101;48.658;2.328;2023-04-24T02:12:25;8.00;99.90
70550;DHT22;58101;48.658;2.328;2023-04-24T02:14:50;8.00;99.90
70550;DHT22;58101;48.658;2.328;2023-04-24T02:17:16;8.00;99.90
70550;DHT22;58101;48.658;2.328;2023-04-24T02:19:42;8.00;99.90
70550;DHT22;58101;48.658;2.328;2023-04-24T02:22:08;7.90;99.90
70550;DHT22;58101;48.658;2.328;2023-04-24T02:24:33;7.90;99.90
70550;DHT22;58101;48.658;2.328;2023-04-24T02:26:59;7.90;99.90
70550;DHT22;58101;48.658;2.328;2023-04-24T02:29:25;7.90;99.90
70550;DHT22;58101;48.658;2.328;2023-04-24T02:31:51;7.90;99.90
70550;DHT22;58101;48.658;2.328;2023-04-24T02:34:16;7.90;99.90
70550;DHT22;58101;48.658;2.328;2023-04-24T02:36:42;7.90;99.90
70550;DHT22;58101;48.658;2.328;2023-04-24T02:39:07;7.90;99.90
70550;DHT22;58101;48.658;2.328;2023-04-24T02:41:33;7.90;99.90
70550;DHT22;58101;48.658;2.328;2023-04-24T02:43:59;7.80;99.90
70550;DHT22;58101;48.658;2.328;2023-04-24T02:46:25;7.80;99.90
70550;DHT22;58101;48.658;2.328;2023-04-24T02:48:50;7.80;99.90
70550;DHT22;58101;48.658;2.328;2023-04-24T02:51:16;7.80;99.90
70550;DHT22;58101;48.658;2.328;2023-04-24T02:53:42;7.80;99.90
70550;DHT22;58101;48.658;2.328;2023-04-24T02:56:07;7.80;99.90
70550;DHT22;58101;48.658;2.328;2023-04-24T02:58:33;7.90;99.90
70550;DHT22;58101;48.658;2.328;2023-04-24T03:00:59;7.80;99.90
70550;DHT22;58101;48.658;2.328;2023-04-24T03:03:25;7.80;99.90
70550;DHT22;58101;48.658;2.328;2023-04-24T03:05:51;7.80;99.90
70550;DHT22;58101;48.658;2.328;2023-04-24T03:08:17;7.70;99.90
70550;DHT22;58101;48.658;2.328;2023-04-24T03:10:43;7.70;99.90
70550;DHT22;58101;48.658;2.328;2023-04-24T03:13:08;7.80;99.90
70550;DHT22;58101;48.658;2.328;2023-04-24T03:15:34;7.70;99.90
70550;DHT22;58101;48.658;2.328;2023-04-24T03:18:00;7.50;99.90
70550;DHT22;58101;48.658;2.328;2023-04-24T03:20:26;7.60;99.90
70550;DHT22;58101;48.658;2.328;2023-04-24T03:22:51;7.60;99.90
70550;DHT22;58101;48.658;2.328;2023-04-24T03:25:17;7.50;99.90
70550;DHT22;58101;48.658;2.328;2023-04-24T03:27:43;7.50;99.90
70550;DHT22;58101;48.658;2.328;2023-04-24T03:30:12;7.50;99.90
70550;DHT22;58101;48.658;2.328;2023-04-24T03:32:37;7.50;99.90
70550;DHT22;58101;48.658;2.328;2023-04-24T03:35:06;7.50;99.90
70550;DHT22;58101;48.658;2.328;2023-04-24T03:37:32;7.40;99.90
70550;DHT22;58101;48.658;2.328;2023-04-24T03:39:58;7.40;99.90
70550;DHT22;58101;48.658;2.328;2023-04-24T03:42:23;7.40;99.90
70550;DHT22;58101;48.658;2.328;2023-04-24T03:44:49;7.40;99.90
70550;DHT22;58101;48.658;2.328;2023-04-24T03:47:14;7.40;99.90
70550;DHT22;58101;48.658;2.328;2023-04-24T03:49:40;7.30;99.90
70550;DHT22;58101;48.658;2.328;2023-04-24T03:52:06;7.30;99.90
70550;DHT22;58101;48.658;2.328;2023-04-24T03:54:31;7.30;99.90
70550;DHT22;58101;48.658;2.328;2023-04-24T03:56:57;7.30;99.90
70550;DHT22;58101;48.658;2.328;2023-04-24T03:59:22;7.30;99.90
70550;DHT22;58101;48.658;2.328;2023-04-24T04:01:48;7.30;99.90
70550;DHT22;58101;48.658;2.328;2023-04-24T04:04:14;7.30;99.90
70550;DHT22;58101;48.658;2.328;2023-04-24T04:06:39;7.30;99.90
70550;DHT22;58101;48.658;2.328;2023-04-24T04:09:05;7.20;99.90
70550;DHT22;58101;48.658;2.328;2023-04-24T04:11:31;7.20;99.90
70550;DHT22;58101;48.658;2.328;2023-04-24T04:13:56;7.20;99.90
70550;DHT22;58101;48.658;2.328;2023-04-24T04:16:22;7.30;99.90
70550;DHT22;58101;48.658;2.328;2023-04-24T04:18:48;7.20;99.90
70550;DHT22;58101;48.658;2.328;2023-04-24T04:21:14;7.20;99.90
70550;DHT22;58101;48.658;2.328;2023-04-24T04:23:40;7.20;99.90
70550;DHT22;58101;48.658;2.328;2023-04-24T04:26:05;7.20;99.90
70550;DHT22;58101;48.658;2.328;2023-04-24T04:28:31;7.20;99.90
70550;DHT22;58101;48.658;2.328;2023-04-24T04:30:57;7.20;99.90
70550;DHT22;58101;48.658;2.328;2023-04-24T04:33:23;7.20;99.90
70550;DHT22;58101;48.658;2.328;2023-04-24T04:35:50;7.20;99.90
70550;DHT22;58101;48.658;2.328;2023-04-24T04:38:17;7.20;99.90
70550;DHT22;58101;48.658;2.328;2023-04-24T04:40:44;7.20;99.90
70550;DHT22;58101;48.658;2.328;2023-04-24T04:43:10;7.20;99.90
70550;DHT22;58101;48.658;2.328;2023-04-24T04:45:37;7.20;99.90
70550;DHT22;58101;48.658;2.328;2023-04-24T04:48:04;7.30;99.90
70550;DHT22;58101;48.658;2.328;2023-04-24T04:50:33;7.20;99.90
70550;DHT22;58101;48.658;2.328;2023-04-24T04:52:59;7.10;99.90
70550;DHT22;58101;48.658;2.328;2023-04-24T04:55:24;7.10;99.90
70550;DHT22;58101;48.658;2.328;2023-04-24T04:57:59;7.10;99.90
70550;DHT22;58101;48.658;2.328;2023-04-24T05:00:25;6.90;99.90
70550;DHT22;58101;48.658;2.328;2023-04-24T05:02:51;7.10;99.90
70550;DHT22;58101;48.658;2.328;2023-04-24T05:05:17;7.10;99.90
70550;DHT22;58101;48.658;2.328;2023-04-24T05:07:44;7.10;99.90
70550;DHT22;58101;48.658;2.328;2023-04-24T05:10:12;7.10;99.90
70550;DHT22;58101;48.658;2.328;2023-04-24T05:12:38;7.10;99.90
70550;DHT22;58101;48.658;2.328;2023-04-24T05:15:04;7.10;99.90
70550;DHT22;58101;48.658;2.328;2023-04-24T05:17:30;7.10;99.90
70550;DHT22;58101;48.658;2.328;2023-04-24T05:19:55;7.10;99.90
70550;DHT22;58101;48.658;2.328;2023-04-24T05:22:21;7.10;99.90
70550;DHT22;58101;48.658;2.328;2023-04-24T05:24:47;7.10;99.90
70550;DHT22;58101;48.658;2.328;2023-04-24T05:27:13;7.20;99.90
70550;DHT22;58101;48.658;2.328;2023-04-24T05:29:42;7.20;99.90
70550;DHT22;58101;48.658;2.328;2023-04-24T05:32:07;7.30;99.90
70550;DHT22;58101;48.658;2.328;2023-04-24T05:34:33;7.30;99.90
70550;DHT22;58101;48.658;2.328;2023-04-24T05:36:59;7.40;99.90
70550;DHT22;58101;48.658;2.328;2023-04-24T05:39:26;7.40;99.90
70550;DHT22;58101;48.658;2.328;2023-04-24T05:41:51;7.50;99.90
70550;DHT22;58101;48.658;2.328;2023-04-24T05:44:17;7.50;99.90
70550;DHT22;58101;48.658;2.328;2023-04-24T05:46:43;7.60;99.90
70550;DHT22;58101;48.658;2.328;2023-04-24T05:49:11;7.60;99.90
70550;DHT22;58101;48.658;2.328;2023-04-24T05:51:37;7.70;99.90
70550;DHT22;58101;48.658;2.328;2023-04-24T05:54:04;7.80;99.90
70550;DHT22;58101;48.658;2.328;2023-04-24T05:56:31;7.80;99.90
70550;DHT22;58101;48.658;2.328;2023-04-24T05:58:57;7.90;99.90
70550;DHT22;58101;48.658;2.328;2023-04-24T06:01:23;7.90;99.90
70550;DHT22;58101;48.658;2.328;2023-04-24T06:03:48;7.90;99.90
70550;DHT22;58101;48.658;2.328;2023-04-24T06:06:14;8.00;99.90
70550;DHT22;58101;48.658;2.328;2023-04-24T06:08:41;8.00;99.90
70550;DHT22;58101;48.658;2.328;2023-04-24T06:11:07;8.20;99.90
70550;DHT22;58101;48.658;2.328;2023-04-24T06:13:33;8.20;99.90
70550;DHT22;58101;48.658;2.328;2023-04-24T06:15:58;8.30;99.90
70550;DHT22;58101;48.658;2.328;2023-04-24T06:18:24;8.40;99.90
70550;DHT22;58101;48.658;2.328;2023-04-24T06:20:50;8.50;99.90
70550;DHT22;58101;48.658;2.328;2023-04-24T06:23:15;8.50;99.90
70550;DHT22;58101;48.658;2.328;2023-04-24T06:25:41;8.60;99.90
70550;DHT22;58101;48.658;2.328;2023-04-24T06:28:07;8.70;99.90
70550;DHT22;58101;48.658;2.328;2023-04-24T06:30:32;8.70;99.90
70550;DHT22;58101;48.658;2.328;2023-04-24T06:32:58;8.70;99.90
70550;DHT22;58101;48.658;2.328;2023-04-24T06:35:24;8.80;99.90
70550;DHT22;58101;48.658;2.328;2023-04-24T06:37:49;8.80;99.90
70550;DHT22;58101;48.658;2.328;2023-04-24T06:40:15;8.80;99.90
70550;DHT22;58101;48.658;2.328;2023-04-24T06:42:41;8.90;99.90
70550;DHT22;58101;48.658;2.328;2023-04-24T06:45:07;9.00;99.90
70550;DHT22;58101;48.658;2.328;2023-04-24T06:47:33;8.90;99.90
70550;DHT22;58101;48.658;2.328;2023-04-24T06:49:59;9.00;99.90
70550;DHT22;58101;48.658;2.328;2023-04-24T06:52:24;9.00;99.90
70550;DHT22;58101;48.658;2.328;2023-04-24T06:54:50;9.00;99.90
70550;DHT22;58101;48.658;2.328;2023-04-24T06:57:16;9.10;99.90
70550;DHT22;58101;48.658;2.328;2023-04-24T06:59:42;9.20;99.90
70550;DHT22;58101;48.658;2.328;2023-04-24T07:02:08;9.30;99.90
70550;DHT22;58101;48.658;2.328;2023-04-24T07:04:33;9.40;99.90
70550;DHT22;58101;48.658;2.328;2023-04-24T07:06:59;9.50;99.90
70550;DHT22;58101;48.658;2.328;2023-04-24T07:09:25;9.60;99.90
70550;DHT22;58101;48.658;2.328;2023-04-24T07:11:52;9.70;99.90
70550;DHT22;58101;48.658;2.328;2023-04-24T07:14:18;9.80;99.90
70550;DHT22;58101;48.658;2.328;2023-04-24T07:16:45;9.90;99.90
70550;DHT22;58101;48.658;2.328;2023-04-24T07:19:11;10.00;99.90
70550;DHT22;58101;48.658;2.328;2023-04-24T07:21:36;9.80;99.90
70550;DHT22;58101;48.658;2.328;2023-04-24T07:24:02;9.70;99.90
70550;DHT22;58101;48.658;2.328;2023-04-24T07:26:29;9.70;99.90
70550;DHT22;58101;48.658;2.328;2023-04-24T07:28:55;9.70;99.90
70550;DHT22;58101;48.658;2.328;2023-04-24T07:31:20;9.70;99.90
70550;DHT22;58101;48.658;2.328;2023-04-24T07:33:47;9.90;99.90
70550;DHT22;58101;48.658;2.328;2023-04-24T07:36:12;9.90;99.90
70550;DHT22;58101;48.658;2.328;2023-04-24T07:38:42;10.00;99.90
70550;DHT22;58101;48.658;2.328;2023-04-24T07:41:08;10.10;99.90
70550;DHT22;58101;48.658;2.328;2023-04-24T07:43:35;10.20;99.90
70550;DHT22;58101;48.658;2.328;2023-04-24T07:46:01;10.50;99.90
70550;DHT22;58101;48.658;2.328;2023-04-24T07:48:26;10.60;99.90
70550;DHT22;58101;48.658;2.328;2023-04-24T07:50:53;10.80;99.90
70550;DHT22;58101;48.658;2.328;2023-04-24T07:53:18;11.00;99.90
70550;DHT22;58101;48.658;2.328;2023-04-24T07:55:44;11.10;99.90
70550;DHT22;58101;48.658;2.328;2023-04-24T07:58:10;11.10;99.90
70550;DHT22;58101;48.658;2.328;2023-04-24T08:00:35;11.20;99.90
70550;DHT22;58101;48.658;2.328;2023-04-24T08:03:01;11.30;99.90
70550;DHT22;58101;48.658;2.328;2023-04-24T08:05:27;11.30;99.90
70550;DHT22;58101;48.658;2.328;2023-04-24T08:07:54;11.40;99.90
70550;DHT22;58101;48.658;2.328;2023-04-24T08:10:21;11.40;99.90
70550;DHT22;58101;48.658;2.328;2023-04-24T08:12:47;11.40;99.90
70550;DHT22;58101;48.658;2.328;2023-04-24T08:15:12;11.30;99.90
70550;DHT22;58101;48.658;2.328;2023-04-24T08:17:38;11.40;99.90
70550;DHT22;58101;48.658;2.328;2023-04-24T08:20:04;11.40;99.90
70550;DHT22;58101;48.658;2.328;2023-04-24T08:22:30;11.50;99.90
70550;DHT22;58101;48.658;2.328;2023-04-24T08:24:56;11.70;99.90
70550;DHT22;58101;48.658;2.328;2023-04-24T08:27:23;11.70;99.90
70550;DHT22;58101;48.658;2.328;2023-04-24T08:29:49;11.90;99.90
70550;DHT22;58101;48.658;2.328;2023-04-24T08:32:14;12.10;99.90
70550;DHT22;58101;48.658;2.328;2023-04-24T08:34:40;12.20;99.90
70550;DHT22;58101;48.658;2.328;2023-04-24T08:37:05;12.20;99.90
70550;DHT22;58101;48.658;2.328;2023-04-24T08:39:31;12.20;99.90
70550;DHT22;58101;48.658;2.328;2023-04-24T08:41:57;12.20;99.90
70550;DHT22;58101;48.658;2.328;2023-04-24T08:44:33;12.20;99.90
70550;DHT22;58101;48.658;2.328;2023-04-24T08:47:01;12.20;99.90
70550;DHT22;58101;48.658;2.328;2023-04-24T08:49:28;12.20;99.90
70550;DHT22;58101;48.658;2.328;2023-04-24T08:51:54;12.20;99.90
70550;DHT22;58101;48.658;2.328;2023-04-24T08:54:21;12.30;99.90
70550;DHT22;58101;48.658;2.328;2023-04-24T08:56:48;12.50;99.90
70550;DHT22;58101;48.658;2.328;2023-04-24T08:59:15;12.60;99.90
70550;DHT22;58101;48.658;2.328;2023-04-24T09:01:41;12.50;99.90
70550;DHT22;58101;48.658;2.328;2023-04-24T09:04:09;12.50;99.90
70550;DHT22;58101;48.658;2.328;2023-04-24T09:06:38;12.50;99.90
70550;DHT22;58101;48.658;2.328;2023-04-24T09:09:04;12.50;99.90
70550;DHT22;58101;48.658;2.328;2023-04-24T09:11:31;12.50;99.90
70550;DHT22;58101;48.658;2.328;2023-04-24T09:14:00;12.40;99.90
70550;DHT22;58101;48.658;2.328;2023-04-24T09:16:27;12.30;99.90
70550;DHT22;58101;48.658;2.328;2023-04-24T09:18:53;12.20;99.90
70550;DHT22;58101;48.658;2.328;2023-04-24T09:21:21;12.20;99.90
70550;DHT22;58101;48.658;2.328;2023-04-24T09:23:47;12.30;99.90
70550;DHT22;58101;48.658;2.328;2023-04-24T09:26:22;12.40;99.90
70550;DHT22;58101;48.658;2.328;2023-04-24T09:28:49;12.50;99.90
70550;DHT22;58101;48.658;2.328;2023-04-24T09:31:19;12.70;99.90
70550;DHT22;58101;48.658;2.328;2023-04-24T09:34:01;12.50;99.90
70550;DHT22;58101;48.658;2.328;2023-04-24T09:36:32;12.70;99.90
70550;DHT22;58101;48.658;2.328;2023-04-24T09:39:02;12.80;99.90
70550;DHT22;58101;48.658;2.328;2023-04-24T09:41:28;12.90;99.90
70550;DHT22;58101;48.658;2.328;2023-04-24T09:43:55;12.90;99.90
70550;DHT22;58101;48.658;2.328;2023-04-24T09:46:21;13.00;99.90
70550;DHT22;58101;48.658;2.328;2023-04-24T09:48:47;13.10;99.90
70550;DHT22;58101;48.658;2.328;2023-04-24T09:51:13;13.20;99.90
70550;DHT22;58101;48.658;2.328;2023-04-24T09:53:45;13.30;99.90
70550;DHT22;58101;48.658;2.328;2023-04-24T09:56:11;13.30;99.90
70550;DHT22;58101;48.658;2.328;2023-04-24T09:58:38;13.40;99.90
70550;DHT22;58101;48.658;2.328;2023-04-24T10:01:04;13.40;99.90
70550;DHT22;58101;48.658;2.328;2023-04-24T10:03:31;13.60;99.90
70550;DHT22;58101;48.658;2.328;2023-04-24T10:06:01;13.50;99.90
70550;DHT22;58101;48.658;2.328;2023-04-24T10:08:33;13.40;99.90
70550;DHT22;58101;48.658;2.328;2023-04-24T10:11:00;13.40;99.90
70550;DHT22;58101;48.658;2.328;2023-04-24T10:13:26;13.50;99.90
70550;DHT22;58101;48.658;2.328;2023-04-24T10:15:51;13.50;99.90
70550;DHT22;58101;48.658;2.328;2023-04-24T10:18:17;13.60;99.90
70550;DHT22;58101;48.658;2.328;2023-04-24T10:20:46;13.40;98.20
70550;DHT22;58101;48.658;2.328;2023-04-24T10:23:12;13.40;99.90
70550;DHT22;58101;48.658;2.328;2023-04-24T10:25:38;13.30;99.90
70550;DHT22;58101;48.658;2.328;2023-04-24T10:28:04;13.30;99.20
70550;DHT22;58101;48.658;2.328;2023-04-24T10:30:35;13.10;99.90
70550;DHT22;58101;48.658;2.328;2023-04-24T10:33:04;12.90;99.90
70550;DHT22;58101;48.658;2.328;2023-04-24T10:35:37;12.90;99.90
70550;DHT22;58101;48.658;2.328;2023-04-24T10:38:13;12.90;99.90
70550;DHT22;58101;48.658;2.328;2023-04-24T10:40:39;13.10;99.90
70550;DHT22;58101;48.658;2.328;2023-04-24T10:43:06;13.30;99.90
70550;DHT22;58101;48.658;2.328;2023-04-24T10:45:34;13.60;99.90
70550;DHT22;58101;48.658;2.328;2023-04-24T10:48:04;13.80;96.10
70550;DHT22;58101;48.658;2.328;2023-04-24T10:50:53;13.80;96.80
70550;DHT22;58101;48.658;2.328;2023-04-24T10:53:27;13.90;95.00
70550;DHT22;58101;48.658;2.328;2023-04-24T10:56:04;13.90;91.50
70550;DHT22;58101;48.658;2.328;2023-04-24T10:58:50;14.00;90.90
70550;DHT22;58101;48.658;2.328;2023-04-24T11:01:52;14.20;92.00
70550;DHT22;58101;48.658;2.328;2023-04-24T11:04:31;14.20;91.70
70550;DHT22;58101;48.658;2.328;2023-04-24T11:06:57;14.10;92.20
70550;DHT22;58101;48.658;2.328;2023-04-24T11:09:27;14.40;92.80
70550;DHT22;58101;48.658;2.328;2023-04-24T11:12:09;14.50;95.30
70550;DHT22;58101;48.658;2.328;2023-04-24T11:14:59;15.10;90.90
70550;DHT22;58101;48.658;2.328;2023-04-24T11:17:38;15.80;81.80
70550;DHT22;58101;48.658;2.328;2023-04-24T11:20:15;16.20;71.40
70550;DHT22;58101;48.658;2.328;2023-04-24T11:22:42;15.90;74.00
70550;DHT22;58101;48.658;2.328;2023-04-24T11:25:08;15.50;73.40
70550;DHT22;58101;48.658;2.328;2023-04-24T11:27:41;15.50;76.20
70550;DHT22;58101;48.658;2.328;2023-04-24T11:30:07;15.10;78.70
70550;DHT22;58101;48.658;2.328;2023-04-24T11:35:05;15.20;84.00
70550;DHT22;58101;48.658;2.328;2023-04-24T11:37:43;15.10;88.40
70550;DHT22;58101;48.658;2.328;2023-04-24T11:40:14;15.20;89.80
70550;DHT22;58101;48.658;2.328;2023-04-24T11:42:52;15.30;88.20
70550;DHT22;58101;48.658;2.328;2023-04-24T11:45:25;15.40;87.10
70550;DHT22;58101;48.658;2.328;2023-04-24T11:47:51;15.60;88.40
70550;DHT22;58101;48.658;2.328;2023-04-24T11:50:18;15.60;77.90
70550;DHT22;58101;48.658;2.328;2023-04-24T11:52:46;15.60;82.50
70550;DHT22;58101;48.658;2.328;2023-04-24T11:57:45;15.60;74.60
70550;DHT22;58101;48.658;2.328;2023-04-24T12:00:22;15.40;69.40
70550;DHT22;58101;48.658;2.328;2023-04-24T12:02:48;15.20;68.70
70550;DHT22;58101;48.658;2.328;2023-04-24T12:05:25;15.20;69.40
70550;DHT22;58101;48.658;2.328;2023-04-24T12:07:53;15.00;71.40
70550;DHT22;58101;48.658;2.328;2023-04-24T12:10:26;15.10;71.30
70550;DHT22;58101;48.658;2.328;2023-04-24T12:12:53;15.00;72.10
70550;DHT22;58101;48.658;2.328;2023-04-24T12:15:20;15.00;75.40
70550;DHT22;58101;48.658;2.328;2023-04-24T12:17:46;15.00;73.40
70550;DHT22;58101;48.658;2.328;2023-04-24T12:20:13;14.80;71.90
70550;DHT22;58101;48.658;2.328;2023-04-24T12:22:53;14.70;69.70
70550;DHT22;58101;48.658;2.328;2023-04-24T12:25:26;14.50;72.40
70550;DHT22;58101;48.658;2.328;2023-04-24T12:28:09;14.30;74.90
70550;DHT22;58101;48.658;2.328;2023-04-24T12:30:43;14.10;78.00
70550;DHT22;58101;48.658;2.328;2023-04-24T12:33:20;13.90;78.20
70550;DHT22;58101;48.658;2.328;2023-04-24T12:35:47;13.70;79.70
70550;DHT22;58101;48.658;2.328;2023-04-24T12:38:13;13.60;82.00
70550;DHT22;58101;48.658;2.328;2023-04-24T12:40:41;13.40;85.30
70550;DHT22;58101;48.658;2.328;2023-04-24T12:43:20;13.40;87.40
70550;DHT22;58101;48.658;2.328;2023-04-24T12:45:47;13.10;81.50
70550;DHT22;58101;48.658;2.328;2023-04-24T12:48:12;13.10;85.00
70550;DHT22;58101;48.658;2.328;2023-04-24T12:50:42;13.10;81.00
70550;DHT22;58101;48.658;2.328;2023-04-24T12:53:11;13.10;79.30
70550;DHT22;58101;48.658;2.328;2023-04-24T12:55:37;13.20;79.10
70550;DHT22;58101;48.658;2.328;2023-04-24T12:58:02;13.30;77.20
70550;DHT22;58101;48.658;2.328;2023-04-24T13:00:28;13.40;79.40
70550;DHT22;58101;48.658;2.328;2023-04-24T13:02:54;13.50;78.00
70550;DHT22;58101;48.658;2.328;2023-04-24T13:05:20;13.60;73.60
70550;DHT22;58101;48.658;2.328;2023-04-24T13:07:46;13.60;75.00
70550;DHT22;58101;48.658;2.328;2023-04-24T13:10:11;13.80;70.70
70550;DHT22;58101;48.658;2.328;2023-04-24T13:12:38;13.90;67.50
70550;DHT22;58101;48.658;2.328;2023-04-24T13:15:04;14.00;68.90
70550;DHT22;58101;48.658;2.328;2023-04-24T13:17:30;14.00;71.60
70550;DHT22;58101;48.658;2.328;2023-04-24T13:19:55;14.10;71.20
70550;DHT22;58101;48.658;2.328;2023-04-24T13:22:21;14.30;72.70
70550;DHT22;58101;48.658;2.328;2023-04-24T13:24:47;14.40;70.20
70550;DHT22;58101;48.658;2.328;2023-04-24T13:27:16;14.30;67.20
70550;DHT22;58101;48.658;2.328;2023-04-24T13:29:42;14.30;67.20
70550;DHT22;58101;48.658;2.328;2023-04-24T13:32:08;14.20;67.60
70550;DHT22;58101;48.658;2.328;2023-04-24T13:34:34;14.30;69.80
70550;DHT22;58101;48.658;2.328;2023-04-24T13:37:00;14.40;71.50
70550;DHT22;58101;48.658;2.328;2023-04-24T13:39:26;14.50;69.00
70550;DHT22;58101;48.658;2.328;2023-04-24T13:41:54;14.40;69.10
70550;DHT22;58101;48.658;2.328;2023-04-24T13:44:21;14.30;71.40
70550;DHT22;58101;48.658;2.328;2023-04-24T13:46:49;14.10;72.10
70550;DHT22;58101;48.658;2.328;2023-04-24T13:49:15;14.00;71.20
70550;DHT22;58101;48.658;2.328;2023-04-24T13:51:42;13.90;73.20
70550;DHT22;58101;48.658;2.328;2023-04-24T13:54:07;13.50;92.10
70550;DHT22;58101;48.658;2.328;2023-04-24T13:56:33;13.20;92.80
70550;DHT22;58101;48.658;2.328;2023-04-24T13:58:59;12.80;96.60
70550;DHT22;58101;48.658;2.328;2023-04-24T14:01:25;12.60;95.00
70550;DHT22;58101;48.658;2.328;2023-04-24T14:03:55;12.50;96.60
70550;DHT22;58101;48.658;2.328;2023-04-24T14:06:21;12.50;94.20
70550;DHT22;58101;48.658;2.328;2023-04-24T14:08:48;12.70;93.60
70550;DHT22;58101;48.658;2.328;2023-04-24T14:11:14;12.70;90.40
70550;DHT22;58101;48.658;2.328;2023-04-24T14:13:43;13.10;93.20
70550;DHT22;58101;48.658;2.328;2023-04-24T14:16:10;13.40;84.30
70550;DHT22;58101;48.658;2.328;2023-04-24T14:18:36;13.40;85.50
70550;DHT22;58101;48.658;2.328;2023-04-24T14:21:05;13.70;86.70
70550;DHT22;58101;48.658;2.328;2023-04-24T14:23:30;13.80;79.20
70550;DHT22;58101;48.658;2.328;2023-04-24T14:25:59;13.70;84.20
70550;DHT22;58101;48.658;2.328;2023-04-24T14:28:25;13.70;80.50
70550;DHT22;58101;48.658;2.328;2023-04-24T14:30:51;13.50;85.40
70550;DHT22;58101;48.658;2.328;2023-04-24T14:33:17;13.50;90.20
70550;DHT22;58101;48.658;2.328;2023-04-24T14:35:43;13.50;92.50
70550;DHT22;58101;48.658;2.328;2023-04-24T14:38:09;13.60;90.60
70550;DHT22;58101;48.658;2.328;2023-04-24T14:40:35;13.40;90.90
70550;DHT22;58101;48.658;2.328;2023-04-24T14:43:01;13.40;90.50
70550;DHT22;58101;48.658;2.328;2023-04-24T14:45:27;13.60;91.80
70550;DHT22;58101;48.658;2.328;2023-04-24T14:47:53;13.80;88.00
70550;DHT22;58101;48.658;2.328;2023-04-24T14:50:19;14.10;90.40
70550;DHT22;58101;48.658;2.328;2023-04-24T14:52:45;14.30;79.20
70550;DHT22;58101;48.658;2.328;2023-04-24T14:55:11;14.60;78.70
70550;DHT22;58101;48.658;2.328;2023-04-24T14:57:37;14.90;78.30
70550;DHT22;58101;48.658;2.328;2023-04-24T15:00:04;14.90;72.20
70550;DHT22;58101;48.658;2.328;2023-04-24T15:02:35;15.00;71.40
70550;DHT22;58101;48.658;2.328;2023-04-24T15:05:05;15.00;70.40
70550;DHT22;58101;48.658;2.328;2023-04-24T15:07:31;14.90;69.00
70550;DHT22;58101;48.658;2.328;2023-04-24T15:09:57;14.80;69.20
70550;DHT22;58101;48.658;2.328;2023-04-24T15:12:22;14.80;73.10
70550;DHT22;58101;48.658;2.328;2023-04-24T15:14:48;15.00;74.50
70550;DHT22;58101;48.658;2.328;2023-04-24T15:17:14;15.00;71.80
70550;DHT22;58101;48.658;2.328;2023-04-24T15:19:39;14.90;70.50
70550;DHT22;58101;48.658;2.328;2023-04-24T15:22:05;14.90;70.80
70550;DHT22;58101;48.658;2.328;2023-04-24T15:24:31;15.00;72.70
70550;DHT22;58101;48.658;2.328;2023-04-24T15:26:56;14.90;79.50
70550;DHT22;58101;48.658;2.328;2023-04-24T15:29:22;15.00;80.80
70550;DHT22;58101;48.658;2.328;2023-04-24T15:31:48;15.10;78.10
70550;DHT22;58101;48.658;2.328;2023-04-24T15:34:14;14.80;78.00
70550;DHT22;58101;48.658;2.328;2023-04-24T15:36:39;14.70;81.10
70550;DHT22;58101;48.658;2.328;2023-04-24T15:39:05;14.60;81.30
70550;DHT22;58101;48.658;2.328;2023-04-24T15:41:31;14.50;78.90